Time;durP1;ratioP1;P1;durP2;ratioP2;P2;SDS_P1;SDS_P2;PMS_P1;PMS_P2;Temp;Humidity;BMP_temperature;BMP_pressure;BME280_temperature;BME280_humidity;BME280_pressure;Samples;Min_cycle;Max_cycle;Signal;HPM_P1;HPM_P2
2022/04/25 00:02:09;;;;;;;;;12.33;12.33;;;;;17.58;43.49;100507.47;5088805;27;45360;-83
2022/04/25 00:04:35;;;;;;;;;15.67;13.00;;;;;17.07;43.13;100435.94;5081535;27;45332;-83
2022/04/25 00:07:00;;;;;;;;;12.33;11.67;;;;;17.37;43.43;100476.81;5079640;27;45452;-83
2022/04/25 00:09:25;;;;;;;;;13.00;11.33;;;;;17.35;43.68;100478.75;5093556;27;55414;-83
2022/04/25 00:11:51;;;;;;;;;13.67;12.00;;;;;17.38;43.59;100484.78;5083290;27;45479;-83
2022/04/25 00:14:16;;;;;;;;;15.33;11.33;;;;;17.24;43.87;100458.03;5093661;27;45357;-83
2022/04/25 00:16:41;;;;;;;;;15.33;13.33;;;;;17.45;43.85;100496.81;5077700;27;45531;-83
2022/04/25 00:19:08;;;;;;;;;12.00;11.33;;;;;16.92;43.71;100409.31;5096173;27;46179;-84
2022/04/25 00:21:34;;;;;;;;;12.00;12.00;;;;;17.05;43.64;100437.03;5097211;27;45538;-83
2022/04/25 00:23:59;;;;;;;;;14.33;12.67;;;;;17.12;43.83;100451.75;5087969;27;45730;-83
2022/04/25 00:26:24;;;;;;;;;16.00;11.00;;;;;17.39;43.78;100496.41;5081668;27;45365;-83
2022/04/25 00:28:50;;;;;;;;;9.33;9.33;;;;;17.30;43.37;100488.06;5085773;27;46137;-83
2022/04/25 00:31:15;;;;;;;;;12.00;12.00;;;;;17.15;43.83;100456.03;5080183;27;45307;-83
2022/04/25 00:33:41;;;;;;;;;16.67;13.00;;;;;16.97;43.68;100437.59;5097527;27;45297;-83
2022/04/25 00:36:06;;;;;;;;;11.00;9.67;;;;;17.05;43.17;100445.13;5093560;27;45211;-83
2022/04/25 00:38:32;;;;;;;;;12.67;11.67;;;;;17.36;43.94;100504.72;5058512;28;47464;-83
2022/04/25 00:40:57;;;;;;;;;13.00;11.00;;;;;17.36;43.31;100507.44;5067545;27;45857;-83
2022/04/25 00:43:22;;;;;;;;;15.00;10.67;;;;;17.16;43.43;100480.19;5086586;27;45385;-83
2022/04/25 00:45:48;;;;;;;;;11.00;11.00;;;;;16.77;43.37;100422.91;5087266;27;45427;-83
2022/04/25 00:48:13;;;;;;;;;12.67;11.33;;;;;17.34;43.50;100512.06;5094682;27;45387;-83
2022/04/25 00:50:38;;;;;;;;;16.00;11.33;;;;;16.65;43.41;100397.78;5079121;27;45429;-83
2022/04/25 00:53:04;;;;;;;;;10.67;10.33;;;;;17.08;43.37;100472.66;5083615;27;45450;-83
2022/04/25 00:55:30;;;;;;;;;10.33;10.00;;;;;17.29;43.44;100510.56;5090916;27;45545;-83
2022/04/25 00:57:57;;;;;;;;;11.00;7.33;;;;;17.29;43.21;100507.03;5096679;27;46281;-83
2022/04/25 01:00:23;;;;;;;;;10.67;10.33;;;;;17.29;43.29;100501.63;5078586;27;45458;-83
2022/04/25 01:02:49;;;;;;;;;11.67;10.67;;;;;17.03;43.09;100471.28;5097253;27;45350;-83
2022/04/25 01:05:14;;;;;;;;;11.33;11.33;;;;;16.83;43.45;100441.34;5091686;27;45646;-83
2022/04/25 01:07:39;;;;;;;;;13.33;11.33;;;;;17.15;43.02;100489.22;5085562;27;45820;-83
2022/04/25 01:10:06;;;;;;;;;12.00;10.67;;;;;16.98;43.19;100473.47;5094676;27;45447;-83
2022/04/25 01:12:32;;;;;;;;;14.00;12.00;;;;;17.02;43.50;100483.03;5089795;27;45331;-83
2022/04/25 01:15:11;;;;;;;;;11.00;11.00;;;;;16.61;43.52;100416.97;5095235;27;45358;-83
2022/04/25 01:17:37;;;;;;;;;9.67;8.67;;;;;17.13;43.38;100506.47;5089958;27;46276;-83
2022/04/25 01:20:05;;;;;;;;;13.00;8.00;;;;;17.11;43.69;100511.94;5076470;27;45416;-83
2022/04/25 01:27:15;;;;;;;;;12.33;10.33;;;;;16.61;43.37;100433.97;5091210;27;45381;-83
2022/04/25 01:28:30;;;;;;;;;8.00;8.00;;;;;16.80;43.65;100467.63;5099119;27;45550;-83
2022/04/25 01:30:55;;;;;;;;;8.00;8.00;;;;;17.03;43.40;100506.28;5087424;27;45215;-83
2022/04/25 01:33:21;;;;;;;;;10.00;8.33;;;;;16.99;43.38;100502.97;5082556;27;45556;-83
2022/04/25 01:35:46;;;;;;;;;11.00;10.00;;;;;16.57;43.60;100434.31;5097071;27;45217;-83
2022/04/25 01:38:11;;;;;;;;;10.33;9.33;;;;;16.95;43.79;100509.56;5095645;27;50204;-83
2022/04/25 01:40:37;;;;;;;;;10.33;10.33;;;;;16.37;43.55;100422.34;5094516;27;45538;-83
2022/04/25 01:43:02;;;;;;;;;8.67;8.67;;;;;16.83;43.83;100497.00;5086369;27;45563;-83
2022/04/25 01:45:28;;;;;;;;;9.00;9.00;;;;;16.50;44.00;100457.25;5079933;27;45314;-83
2022/04/25 01:47:53;;;;;;;;;13.33;10.00;;;;;16.82;43.93;100511.44;5094328;27;45847;-83
2022/04/25 01:50:18;;;;;;;;;10.33;10.00;;;;;16.58;44.05;100485.31;5068027;27;46379;-83
2022/04/25 01:52:45;;;;;;;;;12.67;8.33;;;;;16.73;44.63;100520.16;5060484;28;45924;-83
2022/04/25 01:55:10;;;;;;;;;8.67;8.67;;;;;16.43;44.13;100478.34;5053224;28;45474;-83
2022/04/25 01:57:36;;;;;;;;;10.33;10.33;;;;;16.59;44.30;100510.41;5041403;28;46321;-83
2022/04/25 02:00:01;;;;;;;;;10.33;10.33;;;;;15.71;44.64;100368.81;5058256;28;45380;-83
2022/04/25 02:02:27;;;;;;;;;9.67;9.67;;;;;16.50;44.40;100516.44;5070878;28;45566;-83
2022/04/25 02:04:52;;;;;;;;;9.67;9.67;;;;;16.48;44.72;100527.28;5060350;28;45695;-83
2022/04/25 02:07:17;;;;;;;;;9.67;9.00;;;;;16.12;45.14;100469.81;5044452;28;46204;-83
2022/04/25 02:09:43;;;;;;;;;11.67;10.33;;;;;16.37;45.20;100519.16;5040427;28;46621;-89
2022/04/25 02:12:08;;;;;;;;;13.67;9.67;;;;;16.02;45.22;100468.75;5046350;28;45603;-89
2022/04/25 02:14:34;;;;;;;;;16.67;11.00;;;;;16.41;45.54;100542.16;5057618;28;45603;-89
2022/04/25 02:17:00;;;;;;;;;10.67;10.67;;;;;16.37;45.68;100546.06;5050069;28;46478;-89
2022/04/25 02:19:26;;;;;;;;;11.00;10.00;;;;;16.32;45.83;100540.13;5038849;28;45362;-89
2022/04/25 02:21:52;;;;;;;;;17.33;10.33;;;;;15.97;45.89;100487.91;5054914;28;45556;-87
2022/04/25 02:24:18;;;;;;;;;13.67;10.00;;;;;16.03;45.94;100497.34;5044234;28;45512;-87
2022/04/25 02:26:43;;;;;;;;;9.67;9.67;;;;;15.50;46.18;100413.25;5057807;28;46351;-88
2022/04/25 02:29:09;;;;;;;;;14.67;12.00;;;;;16.01;46.11;100492.09;5057365;28;46009;-85
2022/04/25 02:31:34;;;;;;;;;11.33;11.33;;;;;15.97;46.14;100487.91;5042564;28;45610;-88
2022/04/25 02:33:59;;;;;;;;;11.67;11.67;;;;;15.98;46.48;100496.81;5054649;28;45582;-89
2022/04/25 02:36:25;;;;;;;;;11.67;9.00;;;;;15.90;46.65;100475.00;5047035;28;46321;-89
2022/04/25 02:38:50;;;;;;;;;9.33;8.00;;;;;16.27;46.49;100544.97;5042771;28;45724;-88
2022/04/25 02:41:16;;;;;;;;;8.67;8.67;;;;;16.09;46.49;100507.69;5045252;28;45498;-89
2022/04/25 02:43:43;;;;;;;;;11.00;10.67;;;;;16.18;46.67;100528.53;5042716;28;46791;-91
2022/04/25 02:46:12;;;;;;;;;10.33;9.33;;;;;16.19;47.00;100532.94;5053791;28;46114;-90
2022/04/25 02:48:39;;;;;;;;;9.67;9.00;;;;;16.19;47.01;100534.78;5040726;28;45472;-87
2022/04/25 02:51:06;;;;;;;;;15.33;14.33;;;;;16.02;47.22;100517.13;5043034;28;45420;-86
2022/04/25 02:53:32;;;;;;;;;15.67;12.00;;;;;16.18;47.27;100536.59;5072210;27;45385;-90
2022/04/25 02:55:58;;;;;;;;;16.00;14.33;;;;;16.20;47.54;100548.13;5085763;27;46288;-86
2022/04/25 02:58:25;;;;;;;;;14.00;10.00;;;;;15.98;47.54;100507.56;5086316;27;45437;-88
2022/04/25 03:01:00;;;;;;;;;12.33;11.33;;;;;16.14;47.43;100545.00;5084021;27;45416;-89
2022/04/25 03:03:26;;;;;;;;;11.67;11.67;;;;;16.20;47.64;100552.59;5060781;28;45325;-88
2022/04/25 03:05:52;;;;;;;;;10.33;10.33;;;;;16.16;47.71;100551.97;5078367;28;46183;-88
2022/04/25 03:08:20;;;;;;;;;15.00;12.67;;;;;16.14;47.43;100553.91;5078397;28;45269;-88
2022/04/25 03:10:48;;;;;;;;;14.33;13.00;;;;;15.95;47.69;100527.47;5077262;28;45483;-87
2022/04/25 03:13:15;;;;;;;;;11.00;10.00;;;;;16.10;47.88;100554.22;5078286;28;45543;-88
2022/04/25 03:15:40;;;;;;;;;13.67;13.00;;;;;15.72;48.00;100491.44;5077842;28;45592;-88
2022/04/25 03:18:10;;;;;;;;;10.00;9.67;;;;;16.07;48.01;100560.69;5077654;28;45441;-88
2022/04/25 03:20:37;;;;;;;;;12.67;11.33;;;;;16.04;48.09;100559.06;5077969;27;45370;-87
2022/04/25 03:23:02;;;;;;;;;15.33;11.00;;;;;16.01;48.05;100559.31;5077657;28;45576;-88
2022/04/25 03:25:31;;;;;;;;;13.67;11.00;;;;;16.02;48.13;100561.00;5077657;28;45503;-87
2022/04/25 03:27:57;;;;;;;;;18.00;12.33;;;;;15.91;48.13;100536.69;5077528;28;45344;-88
2022/04/25 03:30:23;;;;;;;;;11.50;11.50;;;;;15.98;48.79;100556.81;5076632;28;45358;-88
2022/04/25 03:32:48;;;;;;;;;12.33;10.67;;;;;15.93;48.63;100563.47;5078234;27;45389;-88
2022/04/25 03:35:14;;;;;;;;;15.00;12.33;;;;;15.50;48.93;100483.97;5077053;27;46187;-87
2022/04/25 03:37:41;;;;;;;;;10.00;9.33;;;;;15.51;48.80;100488.34;5077514;27;45444;-87
2022/04/25 03:40:08;;;;;;;;;16.67;13.33;;;;;15.83;49.04;100550.66;5077502;28;45578;-88
2022/04/25 03:42:34;;;;;;;;;16.67;15.67;;;;;15.91;48.83;100563.56;5077926;28;45701;-88
2022/04/25 03:45:00;;;;;;;;;20.00;13.67;;;;;15.70;49.18;100539.03;5077143;27;45979;-87
2022/04/25 03:47:26;;;;;;;;;13.33;13.00;;;;;15.78;49.33;100562.69;5077213;28;45534;-87
2022/04/25 03:49:52;;;;;;;;;15.67;12.33;;;;;15.79;49.50;100575.19;5059117;28;45426;-88
2022/04/25 03:52:17;;;;;;;;;11.67;11.67;;;;;15.65;49.50;100554.59;5076862;28;45432;-87
2022/04/25 03:57:26;;;;;;;;;16.33;14.00;;;;;15.59;49.58;100550.50;5091578;27;45438;-88
2022/04/25 03:59:52;;;;;;;;;13.67;13.67;;;;;15.70;49.62;100571.28;5097970;27;45322;-87
2022/04/25 04:02:17;;;;;;;;;19.33;14.00;;;;;15.32;49.92;100520.97;5097590;27;45537;-87
2022/04/25 04:04:42;;;;;;;;;14.33;14.00;;;;;15.32;49.87;100522.81;5097787;27;45529;-87
2022/04/25 04:07:08;;;;;;;;;18.00;16.00;;;;;15.52;50.00;100554.56;5096855;27;45505;-88
2022/04/25 04:09:46;;;;;;;;;17.67;15.67;;;;;15.05;50.22;100494.13;5097575;27;45276;-88
2022/04/25 04:12:15;;;;;;;;;13.67;13.00;;;;;15.53;50.17;100582.28;5097820;27;45490;-88
2022/04/25 04:14:41;;;;;;;;;15.00;13.67;;;;;15.24;50.30;100526.03;5097684;27;46666;-88
2022/04/25 04:17:07;;;;;;;;;16.33;15.00;;;;;15.23;50.62;100535.03;5097138;27;45599;-88
2022/04/25 04:19:33;;;;;;;;;17.33;16.00;;;;;15.44;50.68;100582.91;5097549;27;45346;-87
2022/04/25 04:22:01;;;;;;;;;18.33;15.00;;;;;15.36;50.60;100572.66;5079110;27;45659;-88
2022/04/25 04:24:26;;;;;;;;;18.33;17.00;;;;;15.04;50.78;100513.91;5078592;27;47189;-88
2022/04/25 04:26:52;;;;;;;;;20.67;19.00;;;;;15.44;50.82;100591.81;5079033;27;45391;-88
2022/04/25 04:29:17;;;;;;;;;16.00;16.00;;;;;15.45;50.63;100606.09;5078655;27;45510;-88
2022/04/25 04:31:45;;;;;;;;;18.67;18.00;;;;;15.44;50.78;100601.69;5079340;27;45490;-88
2022/04/25 04:34:11;;;;;;;;;19.67;18.33;;;;;15.40;50.97;100595.66;5097131;27;45474;-87
2022/04/25 04:36:36;;;;;;;;;18.67;17.33;;;;;15.29;50.85;100591.00;5096811;27;45369;-87
2022/04/25 04:39:02;;;;;;;;;19.33;17.00;;;;;15.29;51.32;100600.88;5097433;27;45456;-88
2022/04/25 04:41:27;;;;;;;;;24.33;19.67;;;;;15.33;51.24;100616.69;5078884;27;45356;-88
2022/04/25 04:43:52;;;;;;;;;16.67;16.33;;;;;15.07;51.26;100578.13;5097375;27;45808;-88
2022/04/25 04:46:18;;;;;;;;;21.67;21.33;;;;;15.31;51.56;100620.44;5096701;27;45535;-88
2022/04/25 04:48:43;;;;;;;;;20.33;19.00;;;;;15.29;51.60;100631.28;5097436;27;45342;-88
2022/04/25 04:51:08;;;;;;;;;22.67;20.33;;;;;15.30;51.75;100633.00;5096800;27;45578;-88
2022/04/25 04:53:34;;;;;;;;;23.00;19.00;;;;;15.16;51.51;100619.63;5096823;27;45420;-88
2022/04/25 04:56:00;;;;;;;;;20.33;20.33;;;;;14.86;51.99;100577.69;5097226;27;45564;-87
2022/04/25 04:58:25;;;;;;;;;20.33;19.00;;;;;15.15;52.08;100634.88;5096795;27;45572;-88
2022/04/25 05:00:50;;;;;;;;;26.33;20.33;;;;;15.26;51.80;100646.72;5079107;27;45374;-88
2022/04/25 05:03:16;;;;;;;;;19.33;18.67;;;;;15.24;51.96;100643.28;5096589;27;45947;-88
2022/04/25 05:05:42;;;;;;;;;24.00;21.33;;;;;15.23;51.69;100649.63;5096554;27;45415;-81
2022/04/25 05:08:08;;;;;;;;;21.67;20.00;;;;;14.66;51.89;100560.19;5096689;27;45459;-81
2022/04/25 05:10:33;;;;;;;;;24.33;20.67;;;;;15.14;51.95;100651.06;5078660;27;45578;-81
2022/04/25 05:12:58;;;;;;;;;27.33;22.67;;;;;15.19;51.91;100659.69;5096883;27;46187;-81
2022/04/25 05:15:24;;;;;;;;;24.33;24.33;;;;;14.92;52.12;100625.59;5096533;27;45338;-81
2022/04/25 05:17:52;;;;;;;;;23.67;22.67;;;;;15.16;51.99;100667.94;5097010;27;45482;-88
2022/04/25 05:20:19;;;;;;;;;21.33;20.00;;;;;15.15;52.20;100671.59;5096067;27;45396;-88
2022/04/25 05:22:46;;;;;;;;;22.00;19.33;;;;;15.10;51.88;100663.84;5096569;27;46098;-88
2022/04/25 05:25:14;;;;;;;;;25.33;25.00;;;;;15.15;52.14;100675.13;5096311;27;45507;-88
2022/04/25 05:27:41;;;;;;;;;29.00;24.33;;;;;14.95;52.16;100643.31;5078382;27;45411;-87
2022/04/25 05:30:07;;;;;;;;;30.33;24.33;;;;;14.97;52.42;100647.63;5096674;27;45515;-88
2022/04/25 05:32:43;;;;;;;;;25.00;22.67;;;;;15.19;51.87;100683.84;5077800;27;47336;-88
2022/04/25 05:35:09;;;;;;;;;26.00;20.33;;;;;15.10;51.94;100666.53;5095914;27;45362;-88
2022/04/25 05:37:34;;;;;;;;;27.00;25.67;;;;;15.05;51.80;100659.69;5096376;27;45251;-87
2022/04/25 05:39:59;;;;;;;;;35.33;25.67;;;;;15.14;51.91;100669.84;5078405;27;45597;-88
2022/04/25 05:42:25;;;;;;;;;24.00;23.00;;;;;15.05;52.08;100660.56;5095913;27;46304;-87
2022/04/25 05:44:50;;;;;;;;;29.00;24.33;;;;;14.82;52.00;100621.78;5096533;27;45487;-81
2022/04/25 05:47:16;;;;;;;;;32.67;26.67;;;;;14.85;52.01;100624.28;5077901;27;45400;-81
2022/04/25 05:52:25;;;;;;;;;31.00;26.00;;;;;15.03;51.54;100665.19;5096539;27;45376;-81
2022/04/25 05:54:50;;;;;;;;;36.67;29.67;;;;;15.25;51.37;100694.19;5099717;27;45250;-81
2022/04/25 05:57:16;;;;;;;;;30.00;26.33;;;;;15.30;51.61;100715.38;5081034;27;45388;-81
2022/04/25 05:59:41;;;;;;;;;33.67;31.33;;;;;15.29;51.60;100711.84;5100214;27;45427;-88
2022/04/25 06:02:07;;;;;;;;;33.00;31.33;;;;;14.98;51.25;100669.97;5099559;27;46367;-88
2022/04/25 06:04:32;;;;;;;;;31.33;28.00;;;;;15.12;51.62;100691.41;5099320;27;45519;-88
2022/04/25 06:06:59;;;;;;;;;31.67;29.67;;;;;14.94;51.55;100655.03;5099415;27;45401;-88
2022/04/25 06:09:26;;;;;;;;;33.00;30.00;;;;;15.36;51.08;100731.13;5081322;27;45378;-88
2022/04/25 06:11:52;;;;;;;;;31.33;29.00;;;;;15.00;50.63;100670.72;5099492;27;46034;-88
2022/04/25 06:14:18;;;;;;;;;29.33;27.33;;;;;15.30;50.85;100727.00;5099018;27;45407;-88
2022/04/25 06:16:43;;;;;;;;;32.33;27.33;;;;;15.15;50.75;100693.94;5099789;27;45525;-87
2022/04/25 06:19:10;;;;;;;;;34.33;29.33;;;;;15.22;50.88;100702.47;5099565;27;45499;-88
2022/04/25 06:21:35;;;;;;;;;32.00;30.00;;;;;15.01;50.86;100667.09;5098979;27;46258;-88
2022/04/25 06:24:01;;;;;;;;;33.00;27.67;;;;;15.47;50.86;100743.84;5081141;27;45635;-87
2022/04/25 06:26:27;;;;;;;;;33.33;32.33;;;;;15.37;50.60;100725.63;5098971;27;45375;-88
2022/04/25 06:28:53;;;;;;;;;29.00;26.00;;;;;15.41;50.58;100723.63;5099721;27;45513;-87
2022/04/25 06:31:22;;;;;;;;;34.33;29.00;;;;;15.54;50.54;100746.03;5098856;27;46158;-87
2022/04/25 06:33:48;;;;;;;;;33.67;29.33;;;;;15.50;50.19;100731.09;5098793;27;45321;-81
2022/04/25 06:36:13;;;;;;;;;31.00;28.33;;;;;15.32;50.10;100697.34;5098966;27;45223;-81
2022/04/25 06:38:38;;;;;;;;;28.00;27.00;;;;;15.61;49.92;100741.13;5099497;27;45246;-81
2022/04/25 06:41:03;;;;;;;;;30.00;27.00;;;;;15.65;50.02;100750.72;5099131;27;45366;-81
2022/04/25 06:43:30;;;;;;;;;38.00;29.33;;;;;15.69;49.88;100754.94;5098279;27;52399;-81
2022/04/25 06:45:56;;;;;;;;;35.00;31.33;;;;;15.73;49.66;100750.25;5080497;27;45378;-81
2022/04/25 06:48:21;;;;;;;;;32.67;30.00;;;;;15.75;49.83;100753.69;5098349;27;45606;-81
2022/04/25 06:50:48;;;;;;;;;35.33;29.00;;;;;15.80;50.12;100759.63;5098828;27;45400;-81
2022/04/25 06:53:13;;;;;;;;;11.33;5.67;;;;;15.59;49.34;100709.00;5098698;27;45476;-81
2022/04/25 06:55:39;;;;;;;;;32.00;30.33;;;;;15.92;49.53;100752.59;5080470;27;45502;-81
2022/04/25 06:58:06;;;;;;;;;30.67;26.67;;;;;16.04;49.27;100749.09;5098977;27;45382;-82
2022/04/25 07:00:32;;;;;;;;;33.33;29.33;;;;;16.10;48.95;100751.38;5097728;27;45925;-81
2022/04/25 07:02:59;;;;;;;;;36.00;31.67;;;;;16.20;48.55;100751.63;5098219;27;45408;-81
2022/04/25 07:05:24;;;;;;;;;32.67;30.00;;;;;15.71;48.80;100676.94;5097184;27;45354;-81
2022/04/25 07:07:50;;;;;;;;;26.67;26.33;;;;;16.01;48.87;100717.91;5098879;27;45421;-81
2022/04/25 07:10:15;;;;;;;;;29.67;23.33;;;;;15.89;48.53;100694.53;5098462;27;45475;-80
2022/04/25 07:12:42;;;;;;;;;34.00;32.67;;;;;16.25;48.32;100763.81;5098383;27;45435;-81
2022/04/25 07:15:08;;;;;;;;;33.00;28.00;;;;;15.71;48.40;100687.69;5098238;27;45432;-81
2022/04/25 07:17:33;;;;;;;;;24.00;23.67;;;;;16.32;48.49;100766.94;5098288;27;45641;-81
2022/04/25 07:19:59;;;;;;;;;28.00;25.67;;;;;16.36;48.27;100764.91;5097862;27;53058;-81
2022/04/25 07:30:36;;;;;;;;;33.67;30.33;;;;;16.29;47.72;100755.53;5097341;27;45879;-81
2022/04/25 07:33:02;;;;;;;;;32.00;28.33;;;;;16.33;47.91;100767.81;5098139;27;45559;-81
2022/04/25 07:35:29;;;;;;;;;33.00;28.33;;;;;15.94;47.76;100703.13;5097865;27;45392;-81
2022/04/25 07:37:57;;;;;;;;;31.33;30.00;;;;;16.41;47.53;100773.50;5080173;27;45384;-81
2022/04/25 07:40:23;;;;;;;;;30.67;27.00;;;;;16.20;48.06;100744.44;5097426;27;46064;-81
2022/04/25 07:42:48;;;;;;;;;34.33;29.00;;;;;16.33;48.05;100774.03;5079644;27;45834;-81
2022/04/25 07:45:14;;;;;;;;;33.67;29.00;;;;;16.37;47.86;100772.00;5097686;27;45290;-81
2022/04/25 07:47:42;;;;;;;;;30.67;29.67;;;;;16.32;47.90;100760.69;5098023;27;45522;-81
2022/04/25 07:50:12;;;;;;;;;32.33;31.00;;;;;16.20;47.65;100722.91;5098175;27;46550;-87
2022/04/25 07:52:38;;;;;;;;;33.33;29.00;;;;;16.13;47.22;100692.03;5097530;27;45444;-87
2022/04/25 07:55:04;;;;;;;;;35.33;31.00;;;;;16.70;47.23;100776.06;5098128;27;45414;-87
2022/04/25 07:57:29;;;;;;;;;33.00;30.00;;;;;16.63;46.73;100743.31;5097874;27;45428;-87
2022/04/25 07:59:56;;;;;;;;;38.33;32.67;;;;;16.80;46.66;100755.63;5097508;27;46122;-88
2022/04/25 08:02:23;;;;;;;;;28.00;26.33;;;;;16.97;46.61;100784.06;5097688;27;45423;-88
2022/04/25 08:04:49;;;;;;;;;30.33;28.33;;;;;17.08;46.52;100789.56;5079457;27;45518;-87
2022/04/25 08:07:15;;;;;;;;;32.33;29.67;;;;;17.23;46.72;100787.63;5097916;27;45455;-88
2022/04/25 08:09:41;;;;;;;;;34.67;31.67;;;;;17.36;46.19;100787.63;5097306;27;45370;-88
2022/04/25 08:20:18;;;;;;;;;28.33;25.67;;;;;17.52;44.76;100751.38;5097200;27;45496;-88
2022/04/25 08:22:45;;;;;;;;;26.00;24.33;;;;;17.92;44.67;100799.69;5097319;27;45455;-88
2022/04/25 08:25:11;;;;;;;;;31.33;28.67;;;;;18.01;44.38;100800.84;5097447;27;45485;-88
2022/04/25 08:27:36;;;;;;;;;27.33;25.00;;;;;18.02;43.87;100782.84;5096999;27;45464;-88
2022/04/25 08:30:02;;;;;;;;;29.33;25.67;;;;;18.11;43.87;100806.44;5097010;27;53151;-87
2022/04/25 08:32:28;;;;;;;;;31.33;26.33;;;;;18.29;43.67;100810.44;5097039;27;45412;-88
2022/04/25 08:34:54;;;;;;;;;27.33;24.67;;;;;18.34;43.42;100815.50;5097456;27;45368;-88
2022/04/25 08:37:19;;;;;;;;;25.33;24.00;;;;;18.04;42.87;100767.41;5079075;27;45227;-88
2022/04/25 08:39:45;;;;;;;;;26.67;23.33;;;;;18.03;43.06;100766.53;5097145;27;46154;-88
2022/04/25 08:42:10;;;;;;;;;29.00;25.33;;;;;18.04;43.40;100783.59;5096947;27;45328;-88
2022/04/25 08:44:38;;;;;;;;;29.67;25.00;;;;;18.33;43.69;100824.56;5096848;27;45356;-88
2022/04/25 08:47:08;;;;;;;;;39.67;29.67;;;;;18.75;43.00;100819.56;5097641;27;45370;-88
2022/04/25 08:49:34;;;;;;;;;32.67;27.67;;;;;18.56;42.73;100793.13;5096785;27;45981;-88
2022/04/25 08:52:01;;;;;;;;;31.67;30.33;;;;;18.79;42.88;100834.59;5097013;27;45420;-88
2022/04/25 08:54:29;;;;;;;;;25.33;23.33;;;;;18.73;42.28;100821.53;5097196;27;45482;-88
2022/04/25 08:56:54;;;;;;;;;27.33;26.33;;;;;18.60;42.00;100808.13;5096821;27;45488;-88
2022/04/25 08:59:20;;;;;;;;;28.67;26.67;;;;;18.71;42.36;100840.56;5096861;27;45885;-88
2022/04/25 09:01:46;;;;;;;;;30.67;27.67;;;;;18.66;42.51;100833.78;5096834;27;45416;-88
2022/04/25 09:04:11;;;;;;;;;32.33;27.33;;;;;18.60;42.60;100824.31;5096902;27;45380;-88
2022/04/25 09:06:36;;;;;;;;;26.00;22.00;;;;;18.10;42.68;100742.69;5097141;27;45364;-88
2022/04/25 09:09:03;;;;;;;;;22.67;22.67;;;;;18.44;42.31;100789.53;5096911;27;45364;-88
2022/04/25 09:14:14;;;;;;;;;26.00;24.00;;;;;18.53;42.23;100767.25;5096746;27;45386;-88
2022/04/25 09:16:40;;;;;;;;;26.00;22.67;;;;;19.24;41.39;100814.94;5097051;27;45472;-88
2022/04/25 09:19:06;;;;;;;;;31.33;26.67;;;;;19.85;40.47;100844.34;5096655;27;45345;-88
2022/04/25 09:21:38;;;;;;;;;22.67;21.33;;;;;19.75;40.48;100817.19;5096556;27;45302;-88
2022/04/25 09:24:27;;;;;;;;;22.00;20.67;;;;;19.90;40.06;100837.59;5078377;27;45407;-88
2022/04/25 09:27:09;;;;;;;;;23.33;21.67;;;;;19.79;40.58;100833.03;5096648;27;45607;-88
2022/04/25 09:29:36;;;;;;;;;24.67;23.33;;;;;19.80;40.04;100844.69;5100159;27;46056;-88
2022/04/25 09:32:03;;;;;;;;;25.67;23.67;;;;;19.47;40.18;100816.66;5099997;27;45518;-88
2022/04/25 09:37:15;;;;;;;;;25.33;22.00;;;;;19.52;41.02;100821.69;5100489;27;45478;-88
2022/04/25 09:39:40;;;;;;;;;23.67;22.67;;;;;19.45;40.15;100780.78;5099624;27;45821;-88
2022/04/25 09:42:07;;;;;;;;;23.00;22.33;;;;;20.00;40.00;100840.38;5099830;27;45465;-88
2022/04/25 09:44:57;;;;;;;;;25.00;22.67;;;;;20.17;39.97;100849.81;5100059;27;45368;-88
2022/04/25 09:47:26;;;;;;;;;21.33;17.33;;;;;20.15;39.39;100831.00;5100294;27;45328;-88
2022/04/25 09:50:12;;;;;;;;;22.67;21.00;;;;;20.53;38.93;100851.28;5099764;27;46251;-88
2022/04/25 09:52:59;;;;;;;;;19.33;17.00;;;;;21.54;38.31;100813.78;5099551;27;45463;-88
2022/04/25 09:55:28;;;;;;;;;17.33;17.33;;;;;23.22;35.08;100805.53;5099722;27;45371;-88
2022/04/25 09:57:54;;;;;;;;;19.67;17.00;;;;;25.76;32.78;100835.28;5099890;27;45602;-88
2022/04/25 10:00:25;;;;;;;;;13.00;12.33;;;;;28.24;29.39;100835.91;5081189;27;47027;-88
2022/04/25 10:02:51;;;;;;;;;21.33;19.33;;;;;30.32;26.65;100814.31;5099662;27;45238;-89
2022/04/25 10:05:19;;;;;;;;;14.33;14.00;;;;;32.25;24.87;100829.47;5099883;27;45427;-89
2022/04/25 10:07:44;;;;;;;;;16.33;14.67;;;;;32.20;23.27;100807.19;5099646;27;45367;-89
2022/04/25 10:10:11;;;;;;;;;12.67;12.67;;;;;32.00;23.08;100789.72;5099120;27;45294;-88
2022/04/25 10:12:37;;;;;;;;;15.33;13.67;;;;;31.70;23.64;100812.03;5081314;27;45419;-88
2022/04/25 10:15:07;;;;;;;;;16.00;12.33;;;;;32.42;23.41;100832.69;5099582;27;45530;-89
2022/04/25 10:17:36;;;;;;;;;18.33;15.33;;;;;34.84;21.67;100821.69;5099768;27;45325;-89
2022/04/25 10:20:02;;;;;;;;;14.67;14.67;;;;;36.02;19.64;100784.63;5080809;27;47987;-89
2022/04/25 10:22:28;;;;;;;;;15.00;15.00;;;;;34.92;20.20;100828.91;5099290;27;45243;-89
2022/04/25 10:24:53;;;;;;;;;7.67;7.67;;;;;35.87;19.54;100757.31;5098859;27;45344;-89
2022/04/25 10:27:27;;;;;;;;;12.67;11.33;;;;;35.56;19.42;100757.47;5081156;27;45542;-89
2022/04/25 10:29:54;;;;;;;;;16.67;13.00;;;;;36.58;18.47;100754.81;5080543;27;47136;-89
2022/04/25 10:32:21;;;;;;;;;11.00;11.00;;;;;37.16;17.71;100769.84;5098969;27;45412;-90
2022/04/25 10:35:01;;;;;;;;;9.33;9.33;;;;;37.61;17.94;100779.47;5099159;27;45586;-89
2022/04/25 10:37:35;;;;;;;;;10.33;10.33;;;;;36.57;18.82;100766.97;5081060;27;45436;-90
2022/04/25 10:40:13;;;;;;;;;9.00;9.00;;;;;36.72;17.83;100811.84;5098419;27;46411;-89
2022/04/25 10:45:55;;;;;;;;;10.67;9.67;;;;;37.28;18.81;100809.59;5099275;27;45357;-83
2022/04/25 10:48:20;;;;;;;;;12.67;11.00;;;;;37.39;18.22;100780.94;5080542;27;45328;-83
2022/04/25 10:51:12;;;;;;;;;15.67;13.67;;;;;37.91;17.70;100820.97;5098840;27;45386;-83
2022/04/25 10:54:00;;;;;;;;;10.00;9.33;;;;;38.18;17.87;100816.56;5098449;27;45563;-84
2022/04/25 10:56:27;;;;;;;;;10.67;10.67;;;;;38.51;17.13;100820.53;5098413;27;45424;-84
2022/04/25 10:59:22;;;;;;;;;9.67;9.67;;;;;38.79;17.03;100825.22;5098738;27;45943;-83
2022/04/25 11:01:48;;;;;;;;;11.00;9.67;;;;;39.11;17.08;100818.25;5080260;27;46574;-84
2022/04/25 11:04:14;;;;;;;;;10.33;9.67;;;;;39.29;15.46;100809.59;5098678;27;45514;-84
2022/04/25 11:06:39;;;;;;;;;11.00;11.00;;;;;39.41;15.64;100782.44;5098845;27;45513;-84
2022/04/25 11:09:05;;;;;;;;;12.67;11.33;;;;;39.18;15.94;100716.56;5098401;27;45530;-83
2022/04/25 11:11:46;;;;;;;;;12.00;11.00;;;;;39.37;15.82;100783.22;5098702;27;46214;-90
2022/04/25 11:14:13;;;;;;;;;12.33;9.67;;;;;39.53;15.40;100821.38;5098418;27;45298;-84
2022/04/25 11:16:39;;;;;;;;;10.67;9.33;;;;;38.50;15.94;100799.38;5099001;27;45441;-89
2022/04/25 11:19:08;;;;;;;;;11.67;11.33;;;;;37.78;15.67;100735.88;5080889;27;45625;-88
2022/04/25 11:21:33;;;;;;;;;11.00;11.00;;;;;37.39;16.14;100750.34;5079752;27;47539;-89
2022/04/25 11:24:01;;;;;;;;;8.67;8.67;;;;;36.92;16.11;100774.53;5072265;27;45707;-88
2022/04/25 11:26:26;;;;;;;;;9.33;7.67;;;;;36.93;16.41;100829.88;5078338;27;46167;-88
2022/04/25 11:31:33;;;;;;;;;8.00;8.00;;;;;36.19;17.06;100822.88;5078785;27;45515;-88
2022/04/25 11:34:03;;;;;;;;;8.33;8.33;;;;;35.79;16.82;100826.97;5088088;27;45557;-88
2022/04/25 11:36:30;;;;;;;;;6.00;6.00;;;;;35.18;17.35;100769.63;5078140;27;45431;-88
2022/04/25 11:41:42;;;;;;;;;12.67;8.00;;;;;34.62;17.85;100813.78;5078909;27;45408;-82
2022/04/25 11:44:08;;;;;;;;;7.67;7.67;;;;;34.01;17.56;100762.59;5077609;27;46145;-82
2022/04/25 11:46:37;;;;;;;;;8.00;6.00;;;;;33.96;17.41;100816.88;5098050;27;45428;-82
2022/04/25 11:49:04;;;;;;;;;10.67;8.67;;;;;33.39;16.82;100789.84;5098026;27;45538;-82
2022/04/25 11:51:34;;;;;;;;;5.00;5.00;;;;;33.16;18.63;100831.75;5096767;27;46207;-82